sensor_id;sensor_type;location;lat;lon;timestamp;pressure;altitude;pressure_sealevel;temperature;humidity
51687;BME280;37774;52.192;4.584;2023-09-19T00:02:41;100862.47;;;15.21;100.00
51687;BME280;37774;52.192;4.584;2023-09-19T00:05:35;100839.59;;;15.27;100.00
51687;BME280;37774;52.192;4.584;2023-09-19T00:08:22;100868.97;;;15.39;100.00
51687;BME280;37774;52.192;4.584;2023-09-19T00:11:07;100876.19;;;15.29;100.00
51687;BME280;37774;52.192;4.584;2023-09-19T00:13:55;100865.81;;;15.26;100.00
51687;BME280;37774;52.192;4.584;2023-09-19T00:16:42;100840.94;;;15.09;100.00
51687;BME280;37774;52.192;4.584;2023-09-19T00:19:30;100853.75;;;15.20;100.00
51687;BME280;37774;52.192;4.584;2023-09-19T00:22:16;100880.34;;;15.38;100.00
51687;BME280;37774;52.192;4.584;2023-09-19T00:25:03;100877.72;;;15.38;100.00
51687;BME280;37774;52.192;4.584;2023-09-19T00:27:50;100884.69;;;15.37;100.00
51687;BME280;37774;52.192;4.584;2023-09-19T00:30:35;100867.41;;;15.31;100.00
51687;BME280;37774;52.192;4.584;2023-09-19T00:33:22;100883.75;;;15.41;100.00
51687;BME280;37774;52.192;4.584;2023-09-19T00:36:09;100891.56;;;15.43;100.00
51687;BME280;37774;52.192;4.584;2023-09-19T00:38:55;100886.56;;;15.33;100.00
51687;BME280;37774;52.192;4.584;2023-09-19T00:41:40;100897.78;;;15.39;100.00
51687;BME280;37774;52.192;4.584;2023-09-19T00:44:28;100889.28;;;15.29;100.00
51687;BME280;37774;52.192;4.584;2023-09-19T00:47:14;100881.34;;;15.32;100.00
51687;BME280;37774;52.192;4.584;2023-09-19T00:50:02;100864.81;;;15.30;100.00
51687;BME280;37774;52.192;4.584;2023-09-19T00:52:54;100879.97;;;15.52;100.00
51687;BME280;37774;52.192;4.584;2023-09-19T00:55:41;100848.38;;;15.25;100.00
51687;BME280;37774;52.192;4.584;2023-09-19T00:58:28;100899.16;;;15.52;100.00
51687;BME280;37774;52.192;4.584;2023-09-19T01:01:18;100895.72;;;15.50;100.00
51687;BME280;37774;52.192;4.584;2023-09-19T01:04:04;100895.34;;;15.64;100.00
51687;BME280;37774;52.192;4.584;2023-09-19T01:06:50;100885.56;;;15.38;100.00
51687;BME280;37774;52.192;4.584;2023-09-19T01:09:38;100906.38;;;15.44;100.00
51687;BME280;37774;52.192;4.584;2023-09-19T01:12:30;100879.47;;;15.37;100.00
51687;BME280;37774;52.192;4.584;2023-09-19T01:15:23;100856.16;;;15.28;100.00
51687;BME280;37774;52.192;4.584;2023-09-19T01:18:27;100905.81;;;15.64;100.00
51687;BME280;37774;52.192;4.584;2023-09-19T01:21:26;100898.97;;;15.58;100.00
51687;BME280;37774;52.192;4.584;2023-09-19T01:24:42;100901.66;;;15.57;100.00
51687;BME280;37774;52.192;4.584;2023-09-19T01:27:53;100904.94;;;15.63;100.00
51687;BME280;37774;52.192;4.584;2023-09-19T01:30:47;100909.09;;;15.72;100.00
51687;BME280;37774;52.192;4.584;2023-09-19T01:33:59;100910.97;;;15.67;100.00
51687;BME280;37774;52.192;4.584;2023-09-19T01:36:44;100907.56;;;15.63;100.00
51687;BME280;37774;52.192;4.584;2023-09-19T01:39:30;100905.47;;;15.76;100.00
51687;BME280;37774;52.192;4.584;2023-09-19T01:42:28;100897.75;;;15.72;100.00
51687;BME280;37774;52.192;4.584;2023-09-19T01:45:23;100850.56;;;15.42;100.00
51687;BME280;37774;52.192;4.584;2023-09-19T01:48:19;100900.25;;;15.76;100.00
51687;BME280;37774;52.192;4.584;2023-09-19T01:51:06;100879.06;;;15.53;100.00
51687;BME280;37774;52.192;4.584;2023-09-19T01:53:56;100912.38;;;15.79;100.00
51687;BME280;37774;52.192;4.584;2023-09-19T01:56:51;100870.22;;;15.57;100.00
51687;BME280;37774;52.192;4.584;2023-09-19T01:59:45;100898.38;;;15.80;100.00
51687;BME280;37774;52.192;4.584;2023-09-19T02:02:35;100891.78;;;15.67;100.00
51687;BME280;37774;52.192;4.584;2023-09-19T02:05:26;100903.50;;;15.53;100.00
51687;BME280;37774;52.192;4.584;2023-09-19T02:08:12;100872.03;;;15.22;100.00
51687;BME280;37774;52.192;4.584;2023-09-19T02:11:00;100906.28;;;15.47;100.00
51687;BME280;37774;52.192;4.584;2023-09-19T02:13:46;100869.41;;;15.22;100.00
51687;BME280;37774;52.192;4.584;2023-09-19T02:16:31;100834.06;;;15.05;100.00
51687;BME280;37774;52.192;4.584;2023-09-19T02:19:17;100906.09;;;15.55;100.00
51687;BME280;37774;52.192;4.584;2023-09-19T02:22:05;100909.78;;;15.47;100.00
51687;BME280;37774;52.192;4.584;2023-09-19T02:24:51;100898.03;;;15.28;100.00
51687;BME280;37774;52.192;4.584;2023-09-19T02:27:37;100855.09;;;15.02;100.00
51687;BME280;37774;52.192;4.584;2023-09-19T02:30:23;100923.78;;;15.45;100.00
51687;BME280;37774;52.192;4.584;2023-09-19T02:33:09;100903.03;;;15.37;100.00
51687;BME280;37774;52.192;4.584;2023-09-19T02:35:55;100929.19;;;15.39;100.00
51687;BME280;37774;52.192;4.584;2023-09-19T02:38:43;100930.00;;;15.41;100.00
51687;BME280;37774;52.192;4.584;2023-09-19T02:41:29;100917.91;;;15.37;100.00
51687;BME280;37774;52.192;4.584;2023-09-19T02:44:17;100893.28;;;15.09;100.00
51687;BME280;37774;52.192;4.584;2023-09-19T02:47:04;100916.19;;;15.36;100.00
51687;BME280;37774;52.192;4.584;2023-09-19T02:49:49;100682.84;;;13.82;100.00
51687;BME280;37774;52.192;4.584;2023-09-19T02:52:35;100911.66;;;15.42;100.00
51687;BME280;37774;52.192;4.584;2023-09-19T02:55:21;100909.72;;;15.49;100.00
51687;BME280;37774;52.192;4.584;2023-09-19T02:58:07;100879.53;;;15.36;100.00
51687;BME280;37774;52.192;4.584;2023-09-19T03:00:55;100901.94;;;15.46;100.00
51687;BME280;37774;52.192;4.584;2023-09-19T03:03:41;100902.66;;;15.53;100.00
51687;BME280;37774;52.192;4.584;2023-09-19T03:06:26;100905.34;;;15.50;100.00
51687;BME280;37774;52.192;4.584;2023-09-19T03:09:14;100906.66;;;15.65;100.00
51687;BME280;37774;52.192;4.584;2023-09-19T03:12:02;100897.41;;;15.53;100.00
51687;BME280;37774;52.192;4.584;2023-09-19T03:14:48;100930.59;;;15.52;100.00
51687;BME280;37774;52.192;4.584;2023-09-19T03:17:34;100843.28;;;15.20;100.00
51687;BME280;37774;52.192;4.584;2023-09-19T03:20:19;100897.31;;;15.56;100.00
51687;BME280;37774;52.192;4.584;2023-09-19T03:23:05;100844.06;;;15.24;100.00
51687;BME280;37774;52.192;4.584;2023-09-19T03:25:51;100898.91;;;15.61;100.00
51687;BME280;37774;52.192;4.584;2023-09-19T03:28:37;100874.56;;;15.58;100.00
51687;BME280;37774;52.192;4.584;2023-09-19T03:31:23;100851.19;;;15.50;100.00
51687;BME280;37774;52.192;4.584;2023-09-19T03:34:08;100901.06;;;15.78;100.00
51687;BME280;37774;52.192;4.584;2023-09-19T03:36:54;100904.56;;;15.77;100.00
51687;BME280;37774;52.192;4.584;2023-09-19T03:39:39;100924.09;;;15.67;100.00
51687;BME280;37774;52.192;4.584;2023-09-19T03:42:24;100874.78;;;15.17;100.00
51687;BME280;37774;52.192;4.584;2023-09-19T03:45:11;100919.59;;;15.39;100.00
51687;BME280;37774;52.192;4.584;2023-09-19T03:47:57;100943.47;;;15.60;100.00
51687;BME280;37774;52.192;4.584;2023-09-19T03:50:42;100886.88;;;15.21;100.00
51687;BME280;37774;52.192;4.584;2023-09-19T03:53:28;100821.63;;;14.80;100.00
51687;BME280;37774;52.192;4.584;2023-09-19T03:56:13;100844.47;;;15.08;100.00
51687;BME280;37774;52.192;4.584;2023-09-19T03:58:59;100671.44;;;13.85;100.00
51687;BME280;37774;52.192;4.584;2023-09-19T04:01:46;100905.81;;;15.31;100.00
51687;BME280;37774;52.192;4.584;2023-09-19T04:04:31;100936.72;;;15.51;100.00
51687;BME280;37774;52.192;4.584;2023-09-19T04:07:17;100945.63;;;15.44;100.00
51687;BME280;37774;52.192;4.584;2023-09-19T04:10:03;100940.31;;;15.47;100.00
51687;BME280;37774;52.192;4.584;2023-09-19T04:12:52;100916.00;;;15.42;100.00
51687;BME280;37774;52.192;4.584;2023-09-19T04:15:38;100932.09;;;15.61;100.00
51687;BME280;37774;52.192;4.584;2023-09-19T04:18:25;100939.06;;;15.62;100.00
51687;BME280;37774;52.192;4.584;2023-09-19T04:21:11;100967.13;;;15.57;100.00
51687;BME280;37774;52.192;4.584;2023-09-19T04:23:56;100878.38;;;15.13;100.00
51687;BME280;37774;52.192;4.584;2023-09-19T04:26:41;100950.03;;;15.76;100.00
51687;BME280;37774;52.192;4.584;2023-09-19T04:29:27;100950.44;;;15.61;100.00
51687;BME280;37774;52.192;4.584;2023-09-19T04:32:13;100720.00;;;14.30;100.00
51687;BME280;37774;52.192;4.584;2023-09-19T04:35:01;100873.16;;;15.13;100.00
51687;BME280;37774;52.192;4.584;2023-09-19T04:37:50;100929.84;;;15.47;100.00
51687;BME280;37774;52.192;4.584;2023-09-19T04:40:36;100934.91;;;15.53;100.00
51687;BME280;37774;52.192;4.584;2023-09-19T04:43:23;100953.91;;;15.61;100.00
51687;BME280;37774;52.192;4.584;2023-09-19T04:46:09;100908.28;;;15.37;100.00
51687;BME280;37774;52.192;4.584;2023-09-19T04:48:57;100871.63;;;15.04;100.00
51687;BME280;37774;52.192;4.584;2023-09-19T04:51:44;100927.50;;;15.36;100.00
51687;BME280;37774;52.192;4.584;2023-09-19T04:54:31;100955.78;;;15.56;100.00
51687;BME280;37774;52.192;4.584;2023-09-19T04:57:17;100965.50;;;15.53;100.00
51687;BME280;37774;52.192;4.584;2023-09-19T05:00:04;100790.56;;;14.31;100.00
51687;BME280;37774;52.192;4.584;2023-09-19T05:02:56;100819.16;;;14.38;100.00
51687;BME280;37774;52.192;4.584;2023-09-19T05:05:42;100883.03;;;15.01;100.00
51687;BME280;37774;52.192;4.584;2023-09-19T05:08:29;100786.00;;;14.40;100.00
51687;BME280;37774;52.192;4.584;2023-09-19T05:11:14;100938.94;;;15.33;100.00
51687;BME280;37774;52.192;4.584;2023-09-19T05:13:59;100952.41;;;15.53;100.00
51687;BME280;37774;52.192;4.584;2023-09-19T05:16:47;100954.31;;;15.46;100.00
51687;BME280;37774;52.192;4.584;2023-09-19T05:19:33;100897.59;;;15.12;100.00
51687;BME280;37774;52.192;4.584;2023-09-19T05:22:19;100951.84;;;15.41;100.00
51687;BME280;37774;52.192;4.584;2023-09-19T05:25:07;100938.94;;;15.32;100.00
51687;BME280;37774;52.192;4.584;2023-09-19T05:27:53;100932.38;;;15.15;100.00
51687;BME280;37774;52.192;4.584;2023-09-19T05:30:38;100968.78;;;15.26;100.00
51687;BME280;37774;52.192;4.584;2023-09-19T05:33:24;100967.97;;;15.23;100.00
51687;BME280;37774;52.192;4.584;2023-09-19T05:36:10;100960.34;;;15.15;100.00
51687;BME280;37774;52.192;4.584;2023-09-19T05:38:56;100966.84;;;15.33;100.00
51687;BME280;37774;52.192;4.584;2023-09-19T05:41:42;100703.53;;;13.90;100.00
51687;BME280;37774;52.192;4.584;2023-09-19T05:44:28;100963.88;;;15.47;100.00
51687;BME280;37774;52.192;4.584;2023-09-19T05:47:13;100972.78;;;15.41;100.00
51687;BME280;37774;52.192;4.584;2023-09-19T05:49:58;100977.06;;;15.44;100.00
51687;BME280;37774;52.192;4.584;2023-09-19T05:52:51;100948.56;;;15.31;100.00
51687;BME280;37774;52.192;4.584;2023-09-19T05:55:37;100917.50;;;15.17;100.00
51687;BME280;37774;52.192;4.584;2023-09-19T05:58:24;100967.22;;;15.54;100.00
51687;BME280;37774;52.192;4.584;2023-09-19T06:01:09;100950.25;;;15.34;100.00
51687;BME280;37774;52.192;4.584;2023-09-19T06:03:54;100963.94;;;15.45;100.00
51687;BME280;37774;52.192;4.584;2023-09-19T06:06:40;100962.81;;;15.56;100.00
51687;BME280;37774;52.192;4.584;2023-09-19T06:09:25;100964.28;;;15.66;100.00
51687;BME280;37774;52.192;4.584;2023-09-19T06:12:11;100966.00;;;15.67;100.00
51687;BME280;37774;52.192;4.584;2023-09-19T06:15:01;100971.31;;;15.64;100.00
51687;BME280;37774;52.192;4.584;2023-09-19T06:17:47;100897.19;;;15.27;100.00
51687;BME280;37774;52.192;4.584;2023-09-19T06:20:33;100973.53;;;15.78;100.00
51687;BME280;37774;52.192;4.584;2023-09-19T06:23:20;100963.97;;;15.77;100.00
51687;BME280;37774;52.192;4.584;2023-09-19T06:26:06;100980.56;;;15.44;100.00
51687;BME280;37774;52.192;4.584;2023-09-19T06:28:52;100952.88;;;15.34;100.00
51687;BME280;37774;52.192;4.584;2023-09-19T06:31:40;100975.19;;;15.49;100.00
51687;BME280;37774;52.192;4.584;2023-09-19T06:34:25;100960.75;;;15.67;100.00
51687;BME280;37774;52.192;4.584;2023-09-19T06:37:11;100964.59;;;15.54;100.00
51687;BME280;37774;52.192;4.584;2023-09-19T06:39:56;100948.66;;;15.61;100.00
51687;BME280;37774;52.192;4.584;2023-09-19T06:42:43;100953.22;;;15.55;100.00
51687;BME280;37774;52.192;4.584;2023-09-19T06:45:29;100959.22;;;15.58;100.00
51687;BME280;37774;52.192;4.584;2023-09-19T06:48:17;100960.19;;;15.56;100.00
51687;BME280;37774;52.192;4.584;2023-09-19T06:51:03;100957.34;;;15.63;100.00
51687;BME280;37774;52.192;4.584;2023-09-19T06:53:49;100924.44;;;15.53;100.00
51687;BME280;37774;52.192;4.584;2023-09-19T06:56:35;100970.41;;;15.98;100.00
51687;BME280;37774;52.192;4.584;2023-09-19T06:59:20;100930.72;;;15.79;100.00
51687;BME280;37774;52.192;4.584;2023-09-19T07:02:06;100976.94;;;16.15;100.00
51687;BME280;37774;52.192;4.584;2023-09-19T07:04:53;100989.13;;;16.16;100.00
51687;BME280;37774;52.192;4.584;2023-09-19T07:07:39;100981.63;;;16.33;100.00
51687;BME280;37774;52.192;4.584;2023-09-19T07:10:24;100989.50;;;16.33;100.00
51687;BME280;37774;52.192;4.584;2023-09-19T07:13:11;100987.69;;;16.35;100.00
51687;BME280;37774;52.192;4.584;2023-09-19T07:15:58;100996.34;;;16.39;100.00
51687;BME280;37774;52.192;4.584;2023-09-19T07:18:43;100992.03;;;16.36;100.00
51687;BME280;37774;52.192;4.584;2023-09-19T07:21:30;100968.88;;;16.21;100.00
51687;BME280;37774;52.192;4.584;2023-09-19T07:24:16;100979.44;;;16.19;100.00
51687;BME280;37774;52.192;4.584;2023-09-19T07:27:01;100955.25;;;16.10;100.00
51687;BME280;37774;52.192;4.584;2023-09-19T07:29:49;100972.59;;;16.14;100.00
51687;BME280;37774;52.192;4.584;2023-09-19T07:32:35;100949.94;;;15.80;100.00
51687;BME280;37774;52.192;4.584;2023-09-19T07:35:22;100971.06;;;16.06;100.00
51687;BME280;37774;52.192;4.584;2023-09-19T07:38:09;100971.84;;;16.10;100.00
51687;BME280;37774;52.192;4.584;2023-09-19T07:41:00;100950.00;;;16.10;100.00
51687;BME280;37774;52.192;4.584;2023-09-19T07:43:46;100970.56;;;16.54;100.00
51687;BME280;37774;52.192;4.584;2023-09-19T07:46:31;100915.63;;;16.20;100.00
51687;BME280;37774;52.192;4.584;2023-09-19T07:49:17;100968.72;;;16.27;100.00
51687;BME280;37774;52.192;4.584;2023-09-19T07:52:03;100953.09;;;16.53;100.00
51687;BME280;37774;52.192;4.584;2023-09-19T07:54:50;100963.81;;;16.75;100.00
51687;BME280;37774;52.192;4.584;2023-09-19T07:57:35;100952.41;;;16.76;100.00
51687;BME280;37774;52.192;4.584;2023-09-19T08:00:21;100962.38;;;16.64;100.00
51687;BME280;37774;52.192;4.584;2023-09-19T08:03:07;100947.56;;;16.90;100.00
51687;BME280;37774;52.192;4.584;2023-09-19T08:05:52;100922.00;;;16.69;100.00
51687;BME280;37774;52.192;4.584;2023-09-19T08:08:38;100912.34;;;16.71;100.00
51687;BME280;37774;52.192;4.584;2023-09-19T08:11:25;100893.25;;;16.65;100.00
51687;BME280;37774;52.192;4.584;2023-09-19T08:14:13;100933.38;;;16.98;100.00
51687;BME280;37774;52.192;4.584;2023-09-19T08:16:59;100933.06;;;17.07;100.00
51687;BME280;37774;52.192;4.584;2023-09-19T08:19:45;100950.03;;;16.95;100.00
51687;BME280;37774;52.192;4.584;2023-09-19T08:22:31;100903.69;;;16.94;100.00
51687;BME280;37774;52.192;4.584;2023-09-19T08:25:16;100944.22;;;17.14;100.00
51687;BME280;37774;52.192;4.584;2023-09-19T08:28:04;100833.75;;;16.66;100.00
51687;BME280;37774;52.192;4.584;2023-09-19T08:30:52;100943.97;;;17.47;100.00
51687;BME280;37774;52.192;4.584;2023-09-19T08:33:39;100942.41;;;17.41;100.00
51687;BME280;37774;52.192;4.584;2023-09-19T08:36:24;100946.84;;;17.39;100.00
51687;BME280;37774;52.192;4.584;2023-09-19T08:39:10;100954.72;;;17.39;100.00
51687;BME280;37774;52.192;4.584;2023-09-19T08:41:57;100961.19;;;17.56;100.00
51687;BME280;37774;52.192;4.584;2023-09-19T08:44:45;100964.19;;;17.45;100.00
51687;BME280;37774;52.192;4.584;2023-09-19T08:47:34;100959.47;;;17.55;100.00
51687;BME280;37774;52.192;4.584;2023-09-19T08:50:26;100958.75;;;17.49;100.00
51687;BME280;37774;52.192;4.584;2023-09-19T08:53:21;100954.53;;;17.45;100.00
51687;BME280;37774;52.192;4.584;2023-09-19T08:56:12;100956.41;;;17.42;100.00
51687;BME280;37774;52.192;4.584;2023-09-19T08:59:00;100958.03;;;17.46;100.00
51687;BME280;37774;52.192;4.584;2023-09-19T09:01:47;100973.22;;;17.36;100.00
51687;BME280;37774;52.192;4.584;2023-09-19T09:04:34;100980.81;;;17.18;100.00
51687;BME280;37774;52.192;4.584;2023-09-19T09:07:21;100899.94;;;17.03;100.00
51687;BME280;37774;52.192;4.584;2023-09-19T09:10:07;100977.75;;;17.05;100.00
51687;BME280;37774;52.192;4.584;2023-09-19T09:12:53;100949.28;;;16.91;100.00
51687;BME280;37774;52.192;4.584;2023-09-19T09:15:40;100952.53;;;17.00;100.00
51687;BME280;37774;52.192;4.584;2023-09-19T09:18:30;100889.19;;;17.11;100.00
51687;BME280;37774;52.192;4.584;2023-09-19T09:21:15;100931.38;;;17.31;100.00
51687;BME280;37774;52.192;4.584;2023-09-19T09:24:26;100901.13;;;17.45;100.00
51687;BME280;37774;52.192;4.584;2023-09-19T09:27:12;100890.63;;;17.94;100.00
51687;BME280;37774;52.192;4.584;2023-09-19T09:29:58;100926.16;;;18.28;100.00
51687;BME280;37774;52.192;4.584;2023-09-19T09:32:43;100935.09;;;18.24;100.00
51687;BME280;37774;52.192;4.584;2023-09-19T09:35:30;100931.06;;;18.37;100.00
51687;BME280;37774;52.192;4.584;2023-09-19T09:38:15;100926.75;;;18.81;100.00
51687;BME280;37774;52.192;4.584;2023-09-19T09:41:02;100878.34;;;18.18;100.00
51687;BME280;37774;52.192;4.584;2023-09-19T09:43:50;100925.31;;;18.50;100.00
51687;BME280;37774;52.192;4.584;2023-09-19T09:46:42;100918.09;;;18.33;100.00
51687;BME280;37774;52.192;4.584;2023-09-19T09:49:59;100931.38;;;18.30;100.00
51687;BME280;37774;52.192;4.584;2023-09-19T09:53:03;100843.00;;;18.25;100.00
51687;BME280;37774;52.192;4.584;2023-09-19T09:55:58;100840.81;;;18.35;100.00
51687;BME280;37774;52.192;4.584;2023-09-19T09:58:50;100878.22;;;18.66;100.00
51687;BME280;37774;52.192;4.584;2023-09-19T10:01:46;100906.22;;;18.89;100.00
51687;BME280;37774;52.192;4.584;2023-09-19T10:04:33;100903.91;;;18.81;100.00
51687;BME280;37774;52.192;4.584;2023-09-19T10:07:28;100896.25;;;19.39;100.00
51687;BME280;37774;52.192;4.584;2023-09-19T10:10:29;100895.69;;;19.32;100.00
51687;BME280;37774;52.192;4.584;2023-09-19T10:13:22;100906.22;;;19.32;100.00
51687;BME280;37774;52.192;4.584;2023-09-19T10:16:11;100900.94;;;19.32;100.00
51687;BME280;37774;52.192;4.584;2023-09-19T10:19:01;100807.75;;;18.73;100.00
51687;BME280;37774;52.192;4.584;2023-09-19T10:21:47;100852.91;;;18.84;100.00
51687;BME280;37774;52.192;4.584;2023-09-19T10:24:33;100905.44;;;18.87;100.00
51687;BME280;37774;52.192;4.584;2023-09-19T10:27:22;100896.25;;;18.97;100.00
51687;BME280;37774;52.192;4.584;2023-09-19T10:30:11;100895.56;;;18.92;100.00
51687;BME280;37774;52.192;4.584;2023-09-19T10:33:01;100891.22;;;18.91;100.00
51687;BME280;37774;52.192;4.584;2023-09-19T10:35:48;100887.31;;;19.02;100.00
51687;BME280;37774;52.192;4.584;2023-09-19T10:38:37;100827.03;;;18.94;100.00
51687;BME280;37774;52.192;4.584;2023-09-19T10:41:25;100860.97;;;19.02;100.00
51687;BME280;37774;52.192;4.584;2023-09-19T10:44:13;100862.16;;;19.15;100.00
51687;BME280;37774;52.192;4.584;2023-09-19T10:47:03;100880.69;;;19.14;100.00
51687;BME280;37774;52.192;4.584;2023-09-19T10:49:50;100871.91;;;18.91;100.00
51687;BME280;37774;52.192;4.584;2023-09-19T10:52:39;100891.22;;;19.14;100.00
51687;BME280;37774;52.192;4.584;2023-09-19T10:55:27;100847.25;;;18.93;100.00
51687;BME280;37774;52.192;4.584;2023-09-19T10:58:25;100878.53;;;19.42;100.00
51687;BME280;37774;52.192;4.584;2023-09-19T11:01:13;100864.31;;;19.05;100.00
51687;BME280;37774;52.192;4.584;2023-09-19T11:04:20;100855.91;;;19.58;100.00
51687;BME280;37774;52.192;4.584;2023-09-19T11:07:09;100794.19;;;19.23;100.00
51687;BME280;37774;52.192;4.584;2023-09-19T11:09:56;100860.38;;;19.55;100.00
51687;BME280;37774;52.192;4.584;2023-09-19T11:12:48;100848.91;;;19.37;100.00
51687;BME280;37774;52.192;4.584;2023-09-19T11:16:02;100862.69;;;19.23;100.00
51687;BME280;37774;52.192;4.584;2023-09-19T11:18:53;100855.66;;;19.24;100.00
51687;BME280;37774;52.192;4.584;2023-09-19T11:21:52;100838.69;;;18.88;100.00
51687;BME280;37774;52.192;4.584;2023-09-19T11:24:41;100851.94;;;19.07;100.00
51687;BME280;37774;52.192;4.584;2023-09-19T11:27:26;100840.09;;;18.97;100.00
51687;BME280;37774;52.192;4.584;2023-09-19T11:30:28;100846.47;;;18.91;100.00
51687;BME280;37774;52.192;4.584;2023-09-19T11:33:18;100805.50;;;18.63;100.00
51687;BME280;37774;52.192;4.584;2023-09-19T11:36:08;100791.50;;;18.40;100.00
51687;BME280;37774;52.192;4.584;2023-09-19T11:39:00;100872.28;;;18.38;100.00
51687;BME280;37774;52.192;4.584;2023-09-19T11:41:58;100845.72;;;18.45;100.00
51687;BME280;37774;52.192;4.584;2023-09-19T11:44:44;100844.22;;;18.39;100.00
51687;BME280;37774;52.192;4.584;2023-09-19T11:47:29;100807.75;;;18.30;100.00
51687;BME280;37774;52.192;4.584;2023-09-19T11:50:19;100854.06;;;18.56;100.00
51687;BME280;37774;52.192;4.584;2023-09-19T11:53:06;100804.25;;;18.51;100.00
51687;BME280;37774;52.192;4.584;2023-09-19T11:55:54;100827.44;;;18.42;100.00
51687;BME280;37774;52.192;4.584;2023-09-19T11:58:41;100848.94;;;18.31;100.00
51687;BME280;37774;52.192;4.584;2023-09-19T12:01:30;100844.38;;;18.34;100.00
51687;BME280;37774;52.192;4.584;2023-09-19T12:04:18;100834.41;;;17.96;100.00
51687;BME280;37774;52.192;4.584;2023-09-19T12:07:07;100821.03;;;18.04;100.00
51687;BME280;37774;52.192;4.584;2023-09-19T12:10:04;100817.53;;;17.80;100.00
51687;BME280;37774;52.192;4.584;2023-09-19T12:12:55;100806.22;;;17.54;100.00
51687;BME280;37774;52.192;4.584;2023-09-19T12:15:40;100730.66;;;17.15;100.00
51687;BME280;37774;52.192;4.584;2023-09-19T12:18:29;100804.81;;;17.69;100.00
51687;BME280;37774;52.192;4.584;2023-09-19T12:21:24;100760.16;;;18.14;100.00
51687;BME280;37774;52.192;4.584;2023-09-19T12:24:12;100800.81;;;18.49;100.00
51687;BME280;37774;52.192;4.584;2023-09-19T12:27:04;100779.91;;;18.46;100.00
51687;BME280;37774;52.192;4.584;2023-09-19T12:29:50;100820.56;;;18.80;100.00
51687;BME280;37774;52.192;4.584;2023-09-19T12:32:39;100776.56;;;18.63;100.00
51687;BME280;37774;52.192;4.584;2023-09-19T12:35:29;100816.09;;;18.82;100.00
51687;BME280;37774;52.192;4.584;2023-09-19T12:38:23;100802.50;;;19.14;100.00
51687;BME280;37774;52.192;4.584;2023-09-19T12:41:09;100797.09;;;18.96;100.00
51687;BME280;37774;52.192;4.584;2023-09-19T12:43:56;100800.69;;;19.54;100.00
51687;BME280;37774;52.192;4.584;2023-09-19T12:46:42;100811.63;;;19.66;100.00
51687;BME280;37774;52.192;4.584;2023-09-19T12:49:27;100778.88;;;19.32;100.00
51687;BME280;37774;52.192;4.584;2023-09-19T12:52:13;100815.59;;;19.36;100.00
51687;BME280;37774;52.192;4.584;2023-09-19T12:55:00;100788.22;;;18.99;100.00
51687;BME280;37774;52.192;4.584;2023-09-19T12:57:59;100797.22;;;19.14;100.00
51687;BME280;37774;52.192;4.584;2023-09-19T13:00:47;100747.34;;;18.90;100.00
51687;BME280;37774;52.192;4.584;2023-09-19T13:03:35;100825.16;;;19.18;100.00
51687;BME280;37774;52.192;4.584;2023-09-19T13:06:35;100823.31;;;19.00;100.00
51687;BME280;37774;52.192;4.584;2023-09-19T13:09:23;100813.88;;;18.73;100.00
51687;BME280;37774;52.192;4.584;2023-09-19T13:12:34;100811.78;;;19.02;100.00
51687;BME280;37774;52.192;4.584;2023-09-19T13:15:20;100804.94;;;18.98;100.00
51687;BME280;37774;52.192;4.584;2023-09-19T13:18:12;100827.91;;;18.74;100.00
51687;BME280;37774;52.192;4.584;2023-09-19T13:21:08;100825.31;;;18.72;100.00
51687;BME280;37774;52.192;4.584;2023-09-19T13:23:56;100822.00;;;18.46;100.00
51687;BME280;37774;52.192;4.584;2023-09-19T13:26:43;100794.22;;;18.39;100.00
51687;BME280;37774;52.192;4.584;2023-09-19T13:29:28;100752.66;;;18.27;100.00
51687;BME280;37774;52.192;4.584;2023-09-19T13:32:14;100803.16;;;18.57;100.00
51687;BME280;37774;52.192;4.584;2023-09-19T13:35:01;100783.19;;;18.51;100.00
51687;BME280;37774;52.192;4.584;2023-09-19T13:37:47;100794.19;;;18.61;100.00
51687;BME280;37774;52.192;4.584;2023-09-19T13:40:33;100774.13;;;18.59;100.00
51687;BME280;37774;52.192;4.584;2023-09-19T13:43:19;100798.31;;;18.24;100.00
51687;BME280;37774;52.192;4.584;2023-09-19T13:46:06;100771.44;;;17.71;100.00
51687;BME280;37774;52.192;4.584;2023-09-19T13:48:55;100815.13;;;17.74;100.00
51687;BME280;37774;52.192;4.584;2023-09-19T13:51:44;100795.53;;;17.83;100.00
51687;BME280;37774;52.192;4.584;2023-09-19T13:54:29;100760.69;;;17.77;100.00
51687;BME280;37774;52.192;4.584;2023-09-19T13:57:15;100734.59;;;17.73;100.00
51687;BME280;37774;52.192;4.584;2023-09-19T14:00:00;100716.44;;;17.66;100.00
51687;BME280;37774;52.192;4.584;2023-09-19T14:02:46;100748.50;;;17.75;100.00
51687;BME280;37774;52.192;4.584;2023-09-19T14:05:32;100756.00;;;17.86;100.00
51687;BME280;37774;52.192;4.584;2023-09-19T14:08:19;100705.88;;;17.44;100.00
51687;BME280;37774;52.192;4.584;2023-09-19T14:11:07;100747.06;;;17.44;100.00
51687;BME280;37774;52.192;4.584;2023-09-19T14:13:52;100744.38;;;17.45;100.00
51687;BME280;37774;52.192;4.584;2023-09-19T14:16:39;100694.09;;;17.32;100.00
51687;BME280;37774;52.192;4.584;2023-09-19T14:19:26;100711.09;;;17.46;100.00
51687;BME280;37774;52.192;4.584;2023-09-19T14:22:11;100716.56;;;17.63;100.00
51687;BME280;37774;52.192;4.584;2023-09-19T14:24:59;100706.16;;;17.60;100.00
51687;BME280;37774;52.192;4.584;2023-09-19T14:27:44;100676.31;;;17.39;100.00
51687;BME280;37774;52.192;4.584;2023-09-19T14:30:31;100704.28;;;17.64;100.00